Ellisburg, New Jersey
Current Conditions -  °F | °C
As of 7:54 PM on Thursday 27 Nov 2014 (Local Time) from KVAY Reporting Station
Clear Clear  
Wind Chill: 28°   Ceiling: Unl
Heat Index: 34°   Visibility: 10mi
Dew Point: 27°   Wind: 7mph
Humidity: 75%   Direction: 280°W
Pressure: 30.09"   Gusts: NA
Location:  39.9312°N, 75.0244°W
Report Text: KVAY 280054Z AUTO 28006KT 10SM CLR 01/M03 A3009 RMK AO2 SLP188 T00111028
Loading
Personal Weather Stations






























Interactive Weather Map New forecast layout! Learn more

10-Day Weather Forecast

Advertisements
Track Severe Weather on mobile